createdAt,value
2018-10-11T00:00:36.814Z,15.03
2018-10-11T00:01:36.827Z,14.99
2018-10-11T00:02:36.843Z,15.01
2018-10-11T00:03:36.855Z,15.01
2018-10-11T00:04:36.869Z,14.92
2018-10-11T00:05:36.884Z,14.96
2018-10-11T00:06:36.903Z,14.94
2018-10-11T00:07:36.916Z,14.88
2018-10-11T00:08:36.928Z,14.89
2018-10-11T00:09:36.949Z,14.83
2018-10-11T00:10:36.956Z,14.92
2018-10-11T00:11:36.969Z,14.91
2018-10-11T00:12:36.983Z,14.88
2018-10-11T00:13:36.998Z,14.81
2018-10-11T00:14:37.017Z,14.83
2018-10-11T00:15:37.030Z,14.80
2018-10-11T00:16:37.043Z,14.78
2018-10-11T00:17:37.058Z,14.70
2018-10-11T00:18:37.073Z,14.70
2018-10-11T00:19:37.084Z,14.75
2018-10-11T00:20:37.105Z,14.81
2018-10-11T00:21:37.116Z,14.73
2018-10-11T00:22:37.133Z,14.70
2018-10-11T00:23:37.144Z,14.69
2018-10-11T00:24:37.159Z,14.75
2018-10-11T00:25:37.174Z,14.70
2018-10-11T00:26:37.188Z,14.61
2018-10-11T00:27:37.202Z,14.70
2018-10-11T00:28:37.217Z,14.58
2018-10-11T00:29:37.231Z,14.61
2018-10-11T00:30:37.288Z,14.58
2018-10-11T00:31:37.257Z,14.62
2018-10-11T00:32:37.273Z,14.60
2018-10-11T00:33:37.290Z,14.64
2018-10-11T00:34:37.305Z,14.60
2018-10-11T00:35:37.318Z,14.58
2018-10-11T00:36:37.334Z,14.65
2018-10-11T00:37:37.347Z,14.60
2018-10-11T00:38:37.375Z,14.62
2018-10-11T00:39:37.379Z,14.64
2018-10-11T00:40:37.389Z,14.68
2018-10-11T00:41:37.406Z,14.61
2018-10-11T00:42:37.425Z,14.60
2018-10-11T00:43:37.436Z,14.65
2018-10-11T00:44:37.447Z,14.68
2018-10-11T00:45:37.461Z,14.57
2018-10-11T00:46:37.480Z,14.60
2018-10-11T00:47:37.491Z,14.62
2018-10-11T00:48:37.506Z,14.61
2018-10-11T00:49:37.637Z,14.62
2018-10-11T00:50:37.534Z,14.70
2018-10-11T00:51:37.548Z,14.62
2018-10-11T00:52:37.562Z,14.72
2018-10-11T00:53:37.577Z,14.62
2018-10-11T00:54:37.593Z,14.58
2018-10-11T00:55:37.609Z,14.61
2018-10-11T00:56:37.621Z,14.60
2018-10-11T00:57:37.640Z,14.64
2018-10-11T00:58:37.650Z,14.57
2018-10-11T00:59:37.663Z,14.55
2018-10-11T01:00:37.678Z,14.64
2018-10-11T01:01:37.691Z,14.51
2018-10-11T01:02:37.708Z,14.62
2018-10-11T01:03:37.723Z,14.55
2018-10-11T01:04:37.735Z,14.58
2018-10-11T01:05:37.753Z,14.57
2018-10-11T01:06:37.769Z,14.58
2018-10-11T01:07:37.780Z,14.61
2018-10-11T01:08:37.801Z,14.61
2018-10-11T01:09:37.807Z,14.70
2018-10-11T01:10:37.824Z,14.64
2018-10-11T01:11:37.837Z,14.60
2018-10-11T01:12:37.851Z,14.78
2018-10-11T01:13:37.870Z,14.80
2018-10-11T01:14:37.892Z,14.75
2018-10-11T01:15:37.895Z,14.70
2018-10-11T01:16:37.906Z,14.68
2018-10-11T01:17:37.924Z,14.75
2018-10-11T01:18:37.938Z,14.70
2018-10-11T01:19:37.953Z,14.65
2018-10-11T01:20:37.966Z,14.73
2018-10-11T01:21:37.981Z,14.57
2018-10-11T01:22:37.999Z,14.62
2018-10-11T01:23:38.066Z,14.57
2018-10-11T01:24:38.025Z,14.61
2018-10-11T01:25:38.038Z,14.62
2018-10-11T01:26:38.051Z,14.61
2018-10-11T01:27:38.067Z,14.55
2018-10-11T01:28:38.083Z,14.54
2018-10-11T01:29:38.144Z,14.52
2018-10-11T01:30:38.110Z,14.57
2018-10-11T01:31:38.125Z,14.55
2018-10-11T01:32:38.139Z,14.47
2018-10-11T01:33:38.191Z,14.45
2018-10-11T01:34:38.172Z,14.55
2018-10-11T01:35:38.187Z,14.52
2018-10-11T01:36:38.201Z,14.43
2018-10-11T01:37:38.211Z,14.50
2018-10-11T01:38:38.274Z,14.36
2018-10-11T01:39:38.241Z,14.37
2018-10-11T01:40:38.254Z,14.45
2018-10-11T01:41:38.267Z,14.46
2018-10-11T01:42:38.285Z,14.45
2018-10-11T01:43:38.297Z,14.43
2018-10-11T01:44:38.310Z,14.52
2018-10-11T01:45:38.329Z,14.52
2018-10-11T01:46:38.342Z,14.51
2018-10-11T01:47:38.354Z,14.47
2018-10-11T01:48:38.369Z,14.52
2018-10-11T01:49:38.383Z,14.37
2018-10-11T01:50:38.401Z,14.39
2018-10-11T01:51:38.412Z,14.37
2018-10-11T01:52:38.439Z,14.32
2018-10-11T01:53:38.441Z,14.24
2018-10-11T01:54:38.454Z,14.21
2018-10-11T01:55:38.473Z,14.32
2018-10-11T01:56:38.495Z,14.25
2018-10-11T01:57:38.497Z,14.33
2018-10-11T01:58:38.512Z,14.24
2018-10-11T01:59:38.527Z,14.25
2018-10-11T02:00:38.542Z,14.27
2018-10-11T02:01:38.556Z,14.28
2018-10-11T02:02:38.569Z,14.25
2018-10-11T02:03:38.584Z,14.22
2018-10-11T02:04:38.599Z,14.24
2018-10-11T02:05:38.612Z,14.27
2018-10-11T02:06:38.627Z,14.25
2018-10-11T02:07:38.642Z,14.22
2018-10-11T02:08:38.655Z,14.25
2018-10-11T02:09:38.791Z,14.25
2018-10-11T02:10:38.684Z,14.24
2018-10-11T02:11:38.697Z,14.25
2018-10-11T02:12:38.717Z,14.17
2018-10-11T02:13:38.726Z,14.27
2018-10-11T02:14:38.742Z,14.25
2018-10-11T02:15:38.759Z,14.20
2018-10-11T02:16:38.771Z,14.22
2018-10-11T02:17:38.782Z,14.24
2018-10-11T02:18:38.795Z,14.29
2018-10-11T02:19:38.806Z,14.20
2018-10-11T02:20:38.820Z,14.22
2018-10-11T02:21:38.835Z,14.27
2018-10-11T02:22:38.850Z,14.27
2018-10-11T02:23:38.862Z,14.25
2018-10-11T02:24:38.880Z,14.25
2018-10-11T02:25:38.893Z,14.24
2018-10-11T02:26:38.907Z,14.28
2018-10-11T02:27:38.921Z,14.25
2018-10-11T02:28:38.935Z,14.24
2018-10-11T02:29:38.950Z,14.28
2018-10-11T02:30:38.963Z,14.25
2018-10-11T02:31:38.977Z,14.25
2018-10-11T02:32:38.992Z,14.24
2018-10-11T02:33:39.006Z,14.20
2018-10-11T02:34:39.024Z,14.25
2018-10-11T02:35:39.039Z,14.15
2018-10-11T02:36:39.048Z,14.12
2018-10-11T02:37:39.065Z,14.27
2018-10-11T02:38:39.080Z,14.15
2018-10-11T02:39:39.095Z,14.15
2018-10-11T02:40:39.105Z,14.17
2018-10-11T02:41:39.120Z,14.15
2018-10-11T02:42:39.137Z,14.14
2018-10-11T02:43:39.154Z,14.12
2018-10-11T02:44:39.172Z,14.20
2018-10-11T02:45:39.177Z,14.25
2018-10-11T02:46:39.192Z,14.27
2018-10-11T02:47:39.205Z,14.20
2018-10-11T02:48:39.220Z,14.29
2018-10-11T02:49:39.235Z,14.21
2018-10-11T02:50:39.250Z,14.28
2018-10-11T02:51:39.261Z,14.22
2018-10-11T02:52:39.276Z,14.27
2018-10-11T02:53:39.296Z,14.27
2018-10-11T02:54:39.307Z,14.17
2018-10-11T02:55:39.320Z,14.15
2018-10-11T02:56:39.335Z,14.21
2018-10-11T02:57:39.352Z,14.07
2018-10-11T02:58:39.362Z,14.12
2018-10-11T02:59:39.427Z,14.07
2018-10-11T03:00:39.391Z,14.04
2018-10-11T03:01:39.411Z,14.02
2018-10-11T03:02:39.421Z,14.07
2018-10-11T03:03:39.440Z,14.03
2018-10-11T03:04:39.449Z,13.99
2018-10-11T03:05:39.461Z,13.96
2018-10-11T03:06:39.477Z,13.96
2018-10-11T03:07:39.490Z,14.02
2018-10-11T03:08:39.510Z,13.96
2018-10-11T03:09:39.519Z,13.92
2018-10-11T03:10:39.533Z,13.97
2018-10-11T03:11:39.548Z,13.88
2018-10-11T03:12:39.564Z,13.85
2018-10-11T03:13:39.576Z,13.88
2018-10-11T03:14:39.592Z,13.88
2018-10-11T03:15:39.609Z,13.87
2018-10-11T03:16:39.619Z,13.84
2018-10-11T03:17:39.633Z,13.89
2018-10-11T03:18:39.648Z,13.95
2018-10-11T03:19:39.661Z,13.92
2018-10-11T03:20:39.676Z,13.88
2018-10-11T03:21:39.690Z,13.95
2018-10-11T03:22:39.704Z,13.92
2018-10-11T03:23:39.717Z,13.91
2018-10-11T03:24:39.733Z,13.87
2018-10-11T03:25:39.747Z,13.92
2018-10-11T03:26:39.766Z,13.88
2018-10-11T03:27:39.775Z,13.95
2018-10-11T03:28:39.789Z,13.87
2018-10-11T03:29:39.805Z,13.85
2018-10-11T03:30:39.820Z,13.91
2018-10-11T03:31:39.832Z,13.87
2018-10-11T03:32:39.847Z,13.91
2018-10-11T03:33:39.866Z,13.91
2018-10-11T03:34:39.876Z,13.88
2018-10-11T03:35:39.889Z,13.88
2018-10-11T03:36:39.903Z,13.87
2018-10-11T03:37:39.918Z,13.87
2018-10-11T03:38:39.934Z,13.88
2018-10-11T03:39:39.945Z,13.89
2018-10-11T03:40:39.959Z,13.88
2018-10-11T03:41:39.973Z,13.89
2018-10-11T03:42:39.989Z,13.88
2018-10-11T03:43:40.006Z,13.84
2018-10-11T03:44:40.021Z,13.88
2018-10-11T03:45:40.032Z,13.79
2018-10-11T03:46:40.095Z,13.78
2018-10-11T03:47:40.060Z,13.71
2018-10-11T03:48:40.075Z,13.67
2018-10-11T03:49:40.088Z,13.73
2018-10-11T03:50:40.103Z,13.67
2018-10-11T03:51:40.117Z,13.59
2018-10-11T03:52:40.131Z,13.62
2018-10-11T03:53:40.146Z,13.71
2018-10-11T03:54:40.158Z,13.71
2018-10-11T03:55:40.173Z,13.67
2018-10-11T03:56:40.186Z,13.75
2018-10-11T03:57:40.201Z,13.73
2018-10-11T03:58:40.215Z,13.71
2018-10-11T03:59:40.230Z,13.73
2018-10-11T04:00:40.243Z,13.67
2018-10-11T04:01:40.262Z,13.71
2018-10-11T04:02:40.275Z,13.71
2018-10-11T04:03:40.287Z,13.73
2018-10-11T04:04:40.301Z,13.62
2018-10-11T04:05:40.316Z,13.59
2018-10-11T04:06:40.328Z,13.57
2018-10-11T04:07:40.425Z,13.57
2018-10-11T04:08:40.357Z,13.62
2018-10-11T04:09:40.372Z,13.60
2018-10-11T04:10:40.389Z,13.60
2018-10-11T04:11:40.402Z,13.62
2018-10-11T04:12:40.416Z,13.57
2018-10-11T04:13:40.434Z,13.66
2018-10-11T04:14:40.442Z,13.66
2018-10-11T04:15:40.487Z,13.54
2018-10-11T04:16:40.469Z,13.52
2018-10-11T04:17:40.484Z,13.60
2018-10-11T04:18:40.500Z,13.52
2018-10-11T04:19:40.517Z,13.62
2018-10-11T04:20:40.529Z,13.49
2018-10-11T04:21:40.542Z,13.51
2018-10-11T04:22:40.556Z,13.51
2018-10-11T04:23:40.568Z,13.49
2018-10-11T04:24:40.582Z,13.48
2018-10-11T04:25:40.647Z,13.44
2018-10-11T04:26:40.614Z,13.48
2018-10-11T04:27:40.626Z,13.42
2018-10-11T04:28:40.639Z,13.36
2018-10-11T04:29:40.654Z,13.42
2018-10-11T04:30:40.669Z,13.49
2018-10-11T04:31:40.685Z,13.49
2018-10-11T04:32:40.695Z,13.44
2018-10-11T04:33:40.709Z,13.41
2018-10-11T04:34:40.724Z,13.39
2018-10-11T04:35:40.738Z,13.44
2018-10-11T04:36:40.753Z,13.44
2018-10-11T04:37:40.768Z,13.49
2018-10-11T04:38:40.784Z,13.45
2018-10-11T04:39:40.793Z,13.41
2018-10-11T04:40:40.812Z,13.45
2018-10-11T04:41:40.821Z,13.42
2018-10-11T04:42:40.908Z,13.46
2018-10-11T04:43:40.851Z,13.42
2018-10-11T04:44:40.864Z,13.32
2018-10-11T04:45:40.880Z,13.39
2018-10-11T04:46:40.899Z,13.46
2018-10-11T04:47:40.908Z,13.42
2018-10-11T04:48:40.924Z,13.44
2018-10-11T04:49:40.937Z,13.46
2018-10-11T04:50:40.949Z,13.42
2018-10-11T04:51:40.964Z,13.45
2018-10-11T04:52:40.978Z,13.45
2018-10-11T04:53:41.074Z,13.46
2018-10-11T04:54:41.005Z,13.44
2018-10-11T04:55:41.019Z,13.44
2018-10-11T04:56:41.034Z,13.33
2018-10-11T04:57:41.048Z,13.44
2018-10-11T04:58:41.063Z,13.39
2018-10-11T04:59:41.112Z,13.44
2018-10-11T05:00:41.097Z,13.38
2018-10-11T05:01:41.117Z,13.30
2018-10-11T05:02:41.117Z,13.28
2018-10-11T05:03:41.132Z,13.30
2018-10-11T05:04:41.151Z,13.22
2018-10-11T05:05:41.161Z,13.29
2018-10-11T05:06:41.182Z,13.36
2018-10-11T05:07:41.188Z,13.38
2018-10-11T05:08:41.205Z,13.30
2018-10-11T05:09:41.222Z,13.32
2018-10-11T05:10:41.240Z,13.42
2018-10-11T05:11:41.244Z,13.42
2018-10-11T05:12:41.260Z,13.33
2018-10-11T05:13:41.277Z,13.36
2018-10-11T05:14:41.293Z,13.28
2018-10-11T05:15:41.300Z,13.39
2018-10-11T05:16:41.316Z,13.41
2018-10-11T05:17:41.330Z,13.39
2018-10-11T05:18:41.345Z,13.41
2018-10-11T05:19:41.357Z,13.44
2018-10-11T05:20:41.375Z,13.42
2018-10-11T05:21:41.387Z,13.45
2018-10-11T05:22:41.403Z,13.38
2018-10-11T05:23:41.416Z,13.39
2018-10-11T05:24:41.436Z,13.33
2018-10-11T05:25:41.447Z,13.36
2018-10-11T05:26:41.456Z,13.29
2018-10-11T05:27:41.471Z,13.30
2018-10-11T05:28:41.486Z,13.20
2018-10-11T05:29:41.505Z,13.25
2018-10-11T05:30:41.514Z,13.23
2018-10-11T05:31:41.527Z,13.29
2018-10-11T05:32:41.545Z,13.25
2018-10-11T05:33:41.558Z,13.23
2018-10-11T05:34:41.573Z,13.20
2018-10-11T05:35:41.588Z,13.12
2018-10-11T05:36:41.599Z,13.14
2018-10-11T05:37:41.620Z,13.19
2018-10-11T05:38:41.630Z,13.15
2018-10-11T05:39:41.643Z,13.15
2018-10-11T05:40:41.654Z,13.03
2018-10-11T05:41:41.668Z,13.11
2018-10-11T05:42:41.683Z,13.14
2018-10-11T05:43:41.696Z,13.11
2018-10-11T05:44:41.711Z,13.12
2018-10-11T05:45:41.723Z,13.14
2018-10-11T05:46:41.739Z,13.17
2018-10-11T05:47:41.764Z,13.12
2018-10-11T05:48:41.769Z,13.12
2018-10-11T05:49:41.781Z,13.17
2018-10-11T05:50:41.796Z,13.14
2018-10-11T05:51:41.809Z,13.19
2018-10-11T05:52:41.827Z,13.14
2018-10-11T05:53:41.840Z,13.10
2018-10-11T05:54:41.852Z,13.03
2018-10-11T05:55:41.865Z,13.04
2018-10-11T05:56:41.948Z,13.07
2018-10-11T05:57:41.900Z,13.05
2018-10-11T05:58:41.910Z,13.07
2018-10-11T05:59:41.921Z,13.04
2018-10-11T06:00:41.939Z,13.03
2018-10-11T06:01:41.977Z,13.04
2018-10-11T06:02:41.975Z,13.07
2018-10-11T06:03:41.979Z,13.05
2018-10-11T06:04:41.990Z,13.07
2018-10-11T06:05:42.005Z,13.14
2018-10-11T06:06:42.026Z,13.14
2018-10-11T06:07:42.035Z,13.14
2018-10-11T06:08:42.047Z,13.17
2018-10-11T06:09:42.070Z,13.17
2018-10-11T06:10:42.076Z,13.15
2018-10-11T06:11:42.485Z,13.17
2018-10-11T06:12:42.856Z,13.07
2018-10-11T06:13:42.966Z,13.05
2018-10-11T06:14:42.504Z,13.10
2018-10-11T06:15:42.538Z,13.15
2018-10-11T06:16:42.210Z,13.17
2018-10-11T06:17:42.237Z,13.10
2018-10-11T06:18:42.188Z,13.17
2018-10-11T06:19:42.204Z,13.14
2018-10-11T06:20:42.216Z,13.20
2018-10-11T06:21:42.233Z,13.22
2018-10-11T06:22:42.247Z,13.25
2018-10-11T06:23:42.261Z,13.23
2018-10-11T06:24:42.314Z,13.32
2018-10-11T06:25:42.292Z,13.20
2018-10-11T06:26:42.303Z,13.26
2018-10-11T06:27:42.329Z,13.19
2018-10-11T06:28:42.433Z,13.32
2018-10-11T06:29:42.346Z,13.30
2018-10-11T06:30:42.362Z,13.26
2018-10-11T06:31:42.372Z,13.29
2018-10-11T06:32:42.404Z,13.41
2018-10-11T06:33:42.402Z,13.36
2018-10-11T06:34:42.427Z,13.41
2018-10-11T06:35:42.474Z,13.45
2018-10-11T06:36:42.608Z,13.44
2018-10-11T06:37:42.469Z,13.45
2018-10-11T06:38:42.474Z,13.55
2018-10-11T06:39:42.485Z,13.46
2018-10-11T06:40:42.504Z,13.59
2018-10-11T06:41:42.582Z,13.49
2018-10-11T06:42:42.666Z,13.60
2018-10-11T06:43:42.542Z,13.55
2018-10-11T06:44:42.557Z,13.63
2018-10-11T06:46:42.601Z,13.57
2018-10-11T06:47:42.599Z,13.62
2018-10-11T06:48:42.614Z,13.71
2018-10-11T06:49:42.678Z,13.70
2018-10-11T06:50:42.644Z,13.69
2018-10-11T06:51:42.657Z,13.73
2018-10-11T06:52:42.674Z,13.79
2018-10-11T06:53:42.691Z,13.69
2018-10-11T06:54:42.696Z,13.82
2018-10-11T06:55:42.713Z,13.77
2018-10-11T06:56:42.723Z,13.79
2018-10-11T06:57:42.739Z,13.81
2018-10-11T06:58:42.752Z,13.88
2018-10-11T06:59:43.054Z,13.89
2018-10-11T07:00:43.382Z,13.87
2018-10-11T07:01:43.199Z,13.91
2018-10-11T07:02:42.810Z,13.85
2018-10-11T07:03:42.835Z,13.88
2018-10-11T07:04:42.840Z,13.95
2018-10-11T07:05:45.690Z,13.95
2018-10-11T07:06:43.830Z,13.91
2018-10-11T07:07:42.880Z,13.95
2018-10-11T07:08:42.916Z,13.99
2018-10-11T07:09:42.907Z,13.97
2018-10-11T07:10:42.926Z,14.02
2018-10-11T07:11:42.941Z,14.09
2018-10-11T07:12:42.952Z,14.02
2018-10-11T07:13:42.980Z,14.07
2018-10-11T07:14:42.981Z,14.10
2018-10-11T07:15:42.997Z,14.18
2018-10-11T07:16:43.008Z,14.15
2018-10-11T07:17:43.022Z,14.27
2018-10-11T07:18:43.037Z,14.28
2018-10-11T07:19:43.050Z,14.21
2018-10-11T07:20:43.064Z,14.20
2018-10-11T07:21:43.080Z,14.33
2018-10-11T07:22:43.094Z,14.35
2018-10-11T07:23:43.280Z,14.35
2018-10-11T07:24:43.123Z,14.37
2018-10-11T07:25:43.143Z,14.46
2018-10-11T07:26:43.151Z,14.54
2018-10-11T07:27:43.165Z,14.54
2018-10-11T07:28:43.181Z,14.54
2018-10-11T07:29:43.195Z,14.60
2018-10-11T07:30:43.211Z,14.64
2018-10-11T07:31:43.224Z,14.61
2018-10-11T07:32:43.237Z,14.64
2018-10-11T07:33:43.259Z,14.65
2018-10-11T07:34:43.348Z,14.68
2018-10-11T07:35:43.281Z,14.70
2018-10-11T07:36:43.296Z,14.78
2018-10-11T07:37:43.312Z,14.86
2018-10-11T07:38:43.323Z,14.78
2018-10-11T07:39:43.339Z,14.88
2018-10-11T07:40:43.420Z,14.88
2018-10-11T07:41:43.378Z,14.95
2018-10-11T07:42:43.383Z,14.98
2018-10-11T07:43:43.396Z,14.96
2018-10-11T07:44:43.411Z,14.96
2018-10-11T07:45:43.425Z,15.02
2018-10-11T07:46:43.440Z,15.06
2018-10-11T07:47:43.454Z,14.99
2018-10-11T07:48:43.467Z,15.10
2018-10-11T07:49:43.481Z,15.02
2018-10-11T07:50:43.497Z,15.13
2018-10-11T07:51:43.515Z,15.10
2018-10-11T07:52:43.550Z,15.14
2018-10-11T07:53:43.539Z,15.21
2018-10-11T07:54:43.555Z,15.23
2018-10-11T07:55:43.569Z,15.27
2018-10-11T07:56:43.583Z,15.36
2018-10-11T07:57:43.610Z,15.38
2018-10-11T07:58:43.633Z,15.32
2018-10-11T07:59:43.624Z,15.46
2018-10-11T08:00:43.641Z,15.44
2018-10-11T08:01:43.761Z,15.49
2018-10-11T08:02:43.669Z,15.47
2018-10-11T08:03:43.681Z,15.47
2018-10-11T08:04:43.696Z,15.46
2018-10-11T08:05:43.714Z,15.62
2018-10-11T08:06:43.730Z,15.62
2018-10-11T08:07:43.883Z,15.68
2018-10-11T08:08:43.762Z,15.64
2018-10-11T08:09:43.770Z,15.75
2018-10-11T08:10:43.811Z,15.76
2018-10-11T08:11:43.841Z,15.78
2018-10-11T08:12:43.813Z,15.76
2018-10-11T08:13:43.895Z,15.76
2018-10-11T08:14:43.846Z,15.84
2018-10-11T08:15:43.856Z,15.83
2018-10-11T08:16:43.993Z,15.94
2018-10-11T08:17:44.285Z,16.01
2018-10-11T08:18:43.971Z,16.02
2018-10-11T08:19:43.930Z,16.07
2018-10-11T08:20:43.930Z,16.07
2018-10-11T08:21:44.076Z,16.20
2018-10-11T08:22:43.961Z,16.07
2018-10-11T08:23:43.975Z,16.27
2018-10-11T08:24:44.244Z,16.20
2018-10-11T08:25:44.443Z,16.25
2018-10-11T08:26:44.122Z,16.35
2018-10-11T08:27:44.030Z,16.30
2018-10-11T08:28:44.047Z,16.35
2018-10-11T08:29:44.061Z,16.48
2018-10-11T08:30:44.079Z,16.50
2018-10-11T08:31:44.135Z,16.49
2018-10-11T08:32:44.415Z,16.49
2018-10-11T08:33:44.129Z,16.58
2018-10-11T08:34:44.133Z,16.64
2018-10-11T08:35:44.149Z,16.63
2018-10-11T08:36:44.164Z,16.64
2018-10-11T08:37:44.310Z,16.70
2018-10-11T08:38:44.331Z,16.68
2018-10-11T08:39:44.210Z,16.78
2018-10-11T08:40:44.222Z,16.82
2018-10-11T08:41:44.542Z,16.75
2018-10-11T08:42:44.256Z,16.75
2018-10-11T08:43:44.281Z,16.79
2018-10-11T08:44:44.278Z,16.88
2018-10-11T08:45:44.294Z,16.85
2018-10-11T08:46:44.310Z,16.91
2018-10-11T08:47:44.324Z,16.94
2018-10-11T08:48:44.339Z,17.00
2018-10-11T08:49:44.359Z,16.98
2018-10-11T08:50:44.403Z,17.00
2018-10-11T08:51:44.382Z,17.04
2018-10-11T08:52:44.399Z,17.12
2018-10-11T08:53:44.503Z,17.08
2018-10-11T08:54:44.429Z,17.19
2018-10-11T08:55:44.535Z,17.22
2018-10-11T08:56:44.461Z,17.23
2018-10-11T08:57:44.475Z,17.30
2018-10-11T08:58:44.487Z,17.36
2018-10-11T08:59:44.563Z,17.36
2018-10-11T09:00:44.519Z,17.37
2018-10-11T09:01:44.690Z,17.44
2018-10-11T09:02:44.703Z,17.51
2018-10-11T09:03:44.866Z,17.46
2018-10-11T09:04:44.578Z,17.46
2018-10-11T09:05:44.593Z,17.56
2018-10-11T09:06:44.606Z,17.55
2018-10-11T09:07:44.624Z,17.66
2018-10-11T09:08:44.634Z,17.68
2018-10-11T09:09:44.652Z,17.70
2018-10-11T09:10:44.728Z,17.72
2018-10-11T09:11:44.685Z,17.75
2018-10-11T09:12:44.847Z,17.84
2018-10-11T09:13:44.710Z,17.87
2018-10-11T09:14:44.725Z,17.89
2018-10-11T09:15:44.742Z,17.86
2018-10-11T09:16:44.757Z,17.95
2018-10-11T09:17:44.772Z,18.03
2018-10-11T09:18:44.790Z,18.18
2018-10-11T09:19:44.804Z,18.15
2018-10-11T09:20:44.815Z,18.10
2018-10-11T09:21:44.836Z,18.14
2018-10-11T09:22:44.848Z,18.25
2018-10-11T09:23:44.862Z,18.26
2018-10-11T09:24:44.875Z,18.30
2018-10-11T09:25:44.889Z,18.32
2018-10-11T09:26:44.904Z,18.39
2018-10-11T09:27:44.919Z,18.51
2018-10-11T09:28:44.934Z,18.44
2018-10-11T09:29:44.949Z,18.57
2018-10-11T09:30:44.965Z,18.57
2018-10-11T09:31:44.981Z,18.60
2018-10-11T09:32:45.147Z,18.58
2018-10-11T09:33:45.011Z,18.67
2018-10-11T09:34:45.027Z,18.69
2018-10-11T09:35:45.041Z,18.66
2018-10-11T09:36:45.057Z,18.70
2018-10-11T09:37:45.071Z,18.78
2018-10-11T09:38:45.085Z,18.76
2018-10-11T09:39:45.109Z,18.81
2018-10-11T09:40:45.117Z,18.85
2018-10-11T09:41:45.134Z,18.87
2018-10-11T09:42:45.146Z,18.90
2018-10-11T09:43:45.162Z,18.98
2018-10-11T09:44:45.180Z,18.99
2018-10-11T09:45:45.203Z,19.07
2018-10-11T09:46:45.206Z,19.14
2018-10-11T09:47:45.224Z,19.22
2018-10-11T09:48:45.285Z,19.26
2018-10-11T09:49:45.304Z,19.23
2018-10-11T09:50:45.267Z,19.29
2018-10-11T09:51:45.289Z,19.39
2018-10-11T09:52:45.301Z,19.37
2018-10-11T09:53:45.316Z,19.41
2018-10-11T09:54:45.361Z,19.51
2018-10-11T09:55:45.349Z,19.51
2018-10-11T09:56:45.357Z,19.47
2018-10-11T09:57:45.373Z,19.50
2018-10-11T09:58:45.391Z,19.56
2018-10-11T09:59:45.448Z,19.66
2018-10-11T10:00:45.420Z,19.66
2018-10-11T10:01:45.436Z,19.66
2018-10-11T10:02:45.452Z,19.76
2018-10-11T10:03:45.465Z,19.77
2018-10-11T10:04:45.483Z,19.91
2018-10-11T10:05:45.498Z,19.94
2018-10-11T10:06:45.514Z,19.88
2018-10-11T10:07:45.533Z,19.95
2018-10-11T10:08:45.541Z,19.92
2018-10-11T10:09:45.589Z,19.98
2018-10-11T10:10:45.573Z,20.03
2018-10-11T10:11:45.587Z,20.02
2018-10-11T10:12:45.603Z,20.17
2018-10-11T10:13:45.618Z,20.18
2018-10-11T10:14:45.637Z,20.16
2018-10-11T10:15:45.652Z,20.29
2018-10-11T10:16:45.671Z,20.24
2018-10-11T10:17:45.681Z,20.31
2018-10-11T10:18:45.704Z,20.31
2018-10-11T10:19:45.726Z,20.38
2018-10-11T10:20:45.746Z,20.35
2018-10-11T10:21:45.743Z,20.32
2018-10-11T10:22:45.759Z,20.33
2018-10-11T10:23:45.772Z,20.36
2018-10-11T10:24:45.791Z,20.47
2018-10-11T10:25:45.804Z,20.39
2018-10-11T10:26:45.855Z,20.43
2018-10-11T10:27:45.841Z,20.43
2018-10-11T10:28:45.858Z,20.57
2018-10-11T10:29:45.866Z,20.52
2018-10-11T10:30:45.909Z,20.54
2018-10-11T10:31:45.896Z,20.52
2018-10-11T10:32:45.910Z,20.57
2018-10-11T10:33:45.961Z,20.57
2018-10-11T10:34:45.947Z,20.57
2018-10-11T10:35:45.956Z,20.72
2018-10-11T10:36:45.976Z,20.87
2018-10-11T10:37:45.987Z,20.88
2018-10-11T10:38:45.999Z,20.73
2018-10-11T10:39:46.055Z,20.80
2018-10-11T10:40:46.033Z,20.84
2018-10-11T10:41:46.048Z,20.79
2018-10-11T10:42:46.069Z,20.76
2018-10-11T10:43:46.080Z,20.87
2018-10-11T10:44:46.097Z,20.80
2018-10-11T10:45:46.105Z,20.94
2018-10-11T10:46:46.123Z,20.97
2018-10-11T10:47:46.139Z,21.01
2018-10-11T10:48:46.205Z,21.07
2018-10-11T10:49:46.172Z,21.07
2018-10-11T10:50:46.191Z,21.10
2018-10-11T10:51:46.200Z,21.09
2018-10-11T10:52:46.216Z,21.13
2018-10-11T10:53:46.232Z,21.28
2018-10-11T10:54:46.249Z,21.31
2018-10-11T10:55:46.264Z,21.27
2018-10-11T10:56:46.278Z,21.38
2018-10-11T10:57:46.298Z,21.44
2018-10-11T10:58:46.314Z,21.35
2018-10-11T10:59:46.327Z,21.37
2018-10-11T11:00:46.347Z,21.34
2018-10-11T11:01:46.359Z,21.47
2018-10-11T11:02:46.376Z,21.58
2018-10-11T11:03:46.388Z,21.58
2018-10-11T11:04:46.405Z,21.58
2018-10-11T11:05:46.422Z,21.52
2018-10-11T11:06:46.437Z,21.59
2018-10-11T11:07:46.452Z,21.62
2018-10-11T11:08:46.468Z,21.58
2018-10-11T11:09:46.487Z,21.65
2018-10-11T11:10:46.501Z,21.64
2018-10-11T11:11:46.516Z,21.54
2018-10-11T11:12:46.549Z,21.53
2018-10-11T11:13:46.549Z,21.47
2018-10-11T11:14:46.563Z,21.50
2018-10-11T11:15:46.578Z,21.52
2018-10-11T11:16:46.596Z,21.52
2018-10-11T11:17:46.611Z,21.53
2018-10-11T11:18:46.653Z,21.52
2018-10-11T11:19:46.648Z,21.59
2018-10-11T11:20:46.658Z,21.62
2018-10-11T11:21:46.677Z,21.69
2018-10-11T11:22:46.692Z,21.67
2018-10-11T11:23:46.708Z,21.74
2018-10-11T11:24:46.724Z,21.75
2018-10-11T11:25:46.743Z,21.82
2018-10-11T11:26:46.753Z,21.68
2018-10-11T11:27:46.771Z,21.72
2018-10-11T11:28:46.786Z,21.79
2018-10-11T11:29:46.802Z,21.74
2018-10-11T11:30:46.818Z,21.72
2018-10-11T11:31:46.834Z,21.77
2018-10-11T11:32:46.851Z,21.80
2018-10-11T11:33:46.866Z,21.98
2018-10-11T11:34:46.882Z,21.99
2018-10-11T11:35:46.900Z,21.90
2018-10-11T11:36:46.927Z,21.98
2018-10-11T11:37:46.932Z,21.98
2018-10-11T11:38:46.949Z,22.05
2018-10-11T11:39:46.962Z,22.07
2018-10-11T11:40:46.980Z,22.22
2018-10-11T11:41:47.044Z,22.21
2018-10-11T11:42:47.013Z,22.33
2018-10-11T11:43:47.027Z,22.39
2018-10-11T11:44:47.049Z,22.42
2018-10-11T11:45:47.082Z,22.39
2018-10-11T11:46:47.281Z,22.31
2018-10-11T11:47:47.104Z,22.43
2018-10-11T11:48:47.109Z,22.35
2018-10-11T11:49:47.124Z,22.28
2018-10-11T11:50:47.141Z,22.17
2018-10-11T11:51:47.158Z,22.21
2018-10-11T11:52:47.172Z,22.21
2018-10-11T11:53:47.188Z,22.20
2018-10-11T11:54:47.204Z,22.17
2018-10-11T11:55:47.221Z,22.17
2018-10-11T11:56:47.240Z,22.14
2018-10-11T11:57:47.266Z,22.20
2018-10-11T11:58:47.271Z,22.37
2018-10-11T11:59:47.290Z,22.33
2018-10-11T12:00:47.303Z,22.40
2018-10-11T12:01:47.323Z,22.37
2018-10-11T12:02:47.393Z,22.36
2018-10-11T12:03:47.353Z,22.49
2018-10-11T12:04:47.367Z,22.45
2018-10-11T12:05:47.387Z,22.52
2018-10-11T12:06:47.402Z,22.37
2018-10-11T12:07:47.419Z,22.33
2018-10-11T12:08:47.434Z,22.45
2018-10-11T12:09:47.450Z,22.42
2018-10-11T12:10:47.480Z,22.33
2018-10-11T12:11:47.483Z,22.39
2018-10-11T12:12:47.497Z,22.36
2018-10-11T12:13:47.515Z,22.40
2018-10-11T12:14:47.533Z,22.39
2018-10-11T12:15:47.547Z,22.40
2018-10-11T12:16:47.698Z,22.47
2018-10-11T12:17:47.591Z,22.49
2018-10-11T12:18:47.597Z,22.52
2018-10-11T12:19:47.613Z,22.54
2018-10-11T12:20:47.630Z,22.61
2018-10-11T12:21:47.650Z,22.60
2018-10-11T12:22:47.662Z,22.58
2018-10-11T12:23:47.680Z,22.64
2018-10-11T12:24:47.785Z,22.77
2018-10-11T12:25:47.722Z,22.80
2018-10-11T12:26:47.735Z,22.79
2018-10-11T12:27:47.743Z,22.94
2018-10-11T12:28:47.795Z,23.00
2018-10-11T12:29:47.777Z,23.01
2018-10-11T12:30:47.899Z,23.07
2018-10-11T12:31:47.811Z,23.07
2018-10-11T12:32:47.951Z,23.09
2018-10-11T12:33:48.276Z,23.02
2018-10-11T12:34:47.861Z,23.10
2018-10-11T12:36:47.894Z,23.05
2018-10-11T12:37:47.992Z,22.97
2018-10-11T12:38:48.082Z,23.01
2018-10-11T12:39:47.951Z,23.00
2018-10-11T12:40:47.959Z,22.95
2018-10-11T12:41:48.093Z,22.97
2018-10-11T12:42:48.023Z,22.98
2018-10-11T12:43:48.093Z,22.94
2018-10-11T12:44:48.037Z,23.00
2018-10-11T12:45:48.045Z,22.98
2018-10-11T12:46:48.058Z,23.02
2018-10-11T12:47:48.074Z,22.97
2018-10-11T12:48:48.090Z,22.98
2018-10-11T12:49:49.342Z,23.01
2018-10-11T12:50:48.134Z,22.90
2018-10-11T12:51:48.234Z,22.86
2018-10-11T12:52:48.180Z,22.85
2018-10-11T12:53:48.633Z,22.92
2018-10-11T12:54:48.768Z,22.88